createdAt,value
2023-02-27T00:00:00.042Z,1.38
2023-02-27T00:02:26.837Z,1.33
2023-02-27T00:04:54.514Z,1.63
2023-02-27T00:07:25.945Z,1.88
2023-02-27T00:09:53.280Z,1.20
2023-02-27T00:12:19.913Z,1.30
2023-02-27T00:14:46.511Z,2.17
2023-02-27T00:17:13.302Z,1.60
2023-02-27T00:19:39.958Z,1.25
2023-02-27T00:22:06.556Z,1.30
2023-02-27T00:24:33.312Z,1.10
2023-02-27T00:27:00.023Z,1.23
2023-02-27T00:29:26.671Z,1.40
2023-02-27T00:31:53.475Z,1.50
2023-02-27T00:34:20.172Z,1.23
2023-02-27T00:36:46.758Z,1.27
2023-02-27T00:39:14.563Z,1.75
2023-02-27T00:41:41.167Z,1.23
2023-02-27T00:44:07.879Z,1.80
2023-02-27T00:46:34.514Z,1.88
2023-02-27T00:49:01.224Z,1.52
2023-02-27T00:51:28.251Z,1.33
2023-02-27T00:53:55.120Z,1.45
2023-02-27T00:56:21.946Z,1.40
2023-02-27T00:58:48.580Z,1.85
2023-02-27T01:01:15.380Z,1.23
2023-02-27T01:03:42.382Z,1.38
2023-02-27T01:06:08.987Z,1.20
2023-02-27T01:08:35.598Z,1.48
2023-02-27T01:11:02.186Z,1.52
2023-02-27T01:13:28.794Z,1.30
2023-02-27T01:15:55.484Z,1.30
2023-02-27T01:18:22.207Z,1.30
2023-02-27T01:20:55.721Z,1.73
2023-02-27T01:23:23.174Z,1.40
2023-02-27T01:25:50.126Z,1.63
2023-02-27T01:28:17.071Z,1.45
2023-02-27T01:30:44.008Z,2.63
2023-02-27T01:33:10.760Z,1.48
2023-02-27T01:35:37.389Z,1.20
2023-02-27T01:38:03.989Z,1.30
2023-02-27T01:40:34.809Z,1.23
2023-02-27T01:43:01.507Z,1.52
2023-02-27T01:45:49.225Z,1.27
2023-02-27T01:48:22.127Z,1.48
2023-02-27T01:50:54.716Z,1.50
2023-02-27T01:53:25.815Z,1.73
2023-02-27T01:55:56.577Z,3.10
2023-02-27T01:58:23.402Z,1.20
2023-02-27T02:00:50.337Z,1.48
2023-02-27T02:03:32.352Z,1.52
2023-02-27T02:06:02.356Z,1.45
2023-02-27T02:08:32.214Z,1.63
2023-02-27T02:10:59.751Z,1.75
2023-02-27T02:13:26.940Z,1.13
2023-02-27T02:16:23.659Z,1.45
2023-02-27T02:19:09.170Z,1.25
2023-02-27T02:22:23.590Z,1.52
2023-02-27T02:25:25.883Z,1.00
2023-02-27T02:27:52.608Z,1.75
2023-02-27T02:30:44.924Z,1.55
2023-02-27T02:34:05.148Z,1.48
2023-02-27T02:36:50.410Z,1.40
2023-02-27T02:39:29.233Z,1.45
2023-02-27T02:42:20.853Z,1.55
2023-02-27T02:45:06.026Z,1.58
2023-02-27T02:47:35.635Z,1.50
2023-02-27T02:52:51.813Z,1.45
2023-02-27T02:55:31.091Z,1.23
2023-02-27T02:58:03.990Z,1.20
2023-02-27T03:00:35.718Z,1.33
2023-02-27T03:03:25.638Z,1.58
2023-02-27T03:06:02.493Z,1.65
2023-02-27T03:08:33.540Z,1.45
2023-02-27T03:11:03.787Z,1.63
2023-02-27T03:14:07.463Z,1.30
2023-02-27T03:16:42.599Z,1.38
2023-02-27T03:19:44.924Z,1.40
2023-02-27T03:22:16.841Z,1.67
2023-02-27T03:24:48.322Z,1.30
2023-02-27T03:27:17.909Z,1.67
2023-02-27T03:32:56.444Z,1.15
2023-02-27T03:35:27.688Z,1.40
2023-02-27T03:37:58.303Z,1.73
2023-02-27T03:40:32.991Z,1.52
2023-02-27T03:43:01.040Z,1.65
2023-02-27T03:45:54.362Z,1.52
2023-02-27T03:48:21.301Z,1.42
2023-02-27T03:50:47.938Z,1.25
2023-02-27T03:53:41.112Z,1.40
2023-02-27T03:56:10.735Z,1.40
2023-02-27T04:01:04.635Z,1.20
2023-02-27T04:03:35.584Z,1.05
2023-02-27T04:06:22.267Z,1.48
2023-02-27T04:09:06.070Z,1.40
2023-02-27T04:11:58.086Z,1.20
2023-02-27T04:14:42.487Z,1.40
2023-02-27T04:17:27.774Z,1.40
2023-02-27T04:20:16.535Z,1.60
2023-02-27T04:22:59.852Z,1.50
2023-02-27T04:25:39.866Z,0.95
2023-02-27T04:28:23.971Z,1.20
2023-02-27T04:31:10.925Z,1.15
2023-02-27T04:33:45.719Z,1.27
2023-02-27T04:36:34.772Z,1.27
2023-02-27T04:39:10.168Z,1.35
2023-02-27T04:41:45.558Z,1.30
2023-02-27T04:44:14.388Z,1.45
2023-02-27T04:46:44.379Z,1.42
2023-02-27T04:49:26.252Z,1.30
2023-02-27T04:52:01.285Z,1.25
2023-02-27T04:54:34.289Z,1.20
2023-02-27T04:57:06.417Z,1.30
2023-02-27T04:59:39.755Z,1.40
2023-02-27T05:02:16.026Z,1.55
2023-02-27T05:04:44.396Z,1.40
2023-02-27T05:07:15.533Z,1.38
2023-02-27T05:09:48.801Z,1.38
2023-02-27T05:12:20.668Z,1.27
2023-02-27T05:14:56.155Z,1.10
2023-02-27T05:17:28.816Z,1.15
2023-02-27T05:19:55.977Z,1.25
2023-02-27T05:22:48.420Z,2.50
2023-02-27T05:25:20.512Z,1.45
2023-02-27T05:28:09.329Z,1.42
2023-02-27T05:30:49.077Z,1.30
2023-02-27T05:33:24.247Z,1.10
2023-02-27T05:36:16.522Z,1.00
2023-02-27T05:38:49.535Z,1.20
2023-02-27T05:41:39.475Z,1.40
2023-02-27T05:44:16.716Z,1.40
2023-02-27T05:46:49.348Z,1.70
2023-02-27T05:49:26.191Z,1.17
2023-02-27T05:51:57.127Z,1.70
2023-02-27T05:54:42.116Z,1.50
2023-02-27T05:57:12.287Z,1.77
2023-02-27T05:59:49.684Z,1.30
2023-02-27T06:02:17.201Z,1.50
2023-02-27T06:04:43.854Z,1.63
2023-02-27T06:07:13.823Z,1.45
2023-02-27T06:09:42.074Z,1.50
2023-02-27T06:12:08.826Z,1.40
2023-02-27T06:14:35.452Z,1.70
2023-02-27T06:17:02.199Z,1.80
2023-02-27T06:19:28.942Z,1.85
2023-02-27T06:21:55.505Z,1.60
2023-02-27T06:24:22.255Z,1.55
2023-02-27T06:26:48.882Z,2.88
2023-02-27T06:29:15.562Z,1.67
2023-02-27T06:31:42.169Z,1.85
2023-02-27T06:34:08.800Z,1.85
2023-02-27T06:36:35.513Z,1.80
2023-02-27T06:39:02.095Z,2.08
2023-02-27T06:41:29.059Z,1.83
2023-02-27T06:43:56.472Z,1.70
2023-02-27T06:46:23.219Z,2.10
2023-02-27T06:48:49.833Z,1.40
2023-02-27T06:51:16.464Z,1.40
2023-02-27T06:53:43.082Z,1.92
2023-02-27T06:56:09.681Z,2.28
2023-02-27T06:58:36.926Z,1.75
2023-02-27T07:01:03.665Z,1.75
2023-02-27T07:03:30.775Z,1.55
2023-02-27T07:05:58.776Z,1.92
2023-02-27T07:08:25.919Z,1.95
2023-02-27T07:10:52.657Z,1.88
2023-02-27T07:13:19.929Z,1.60
2023-02-27T07:15:46.754Z,1.67
2023-02-27T07:18:13.468Z,1.80
2023-02-27T07:20:40.314Z,1.85
2023-02-27T07:23:07.018Z,1.60
2023-02-27T07:25:33.704Z,1.63
2023-02-27T07:28:00.336Z,1.83
2023-02-27T07:30:27.021Z,1.48
2023-02-27T07:32:53.611Z,1.70
2023-02-27T07:35:20.285Z,1.77
2023-02-27T07:37:47.591Z,1.58
2023-02-27T07:40:14.829Z,1.50
2023-02-27T07:42:41.516Z,1.60
2023-02-27T07:45:09.672Z,1.77
2023-02-27T07:47:36.294Z,1.70
2023-02-27T07:50:04.754Z,1.75
2023-02-27T07:52:31.641Z,1.80
2023-02-27T07:54:58.311Z,1.80
2023-02-27T07:57:25.451Z,2.08
2023-02-27T07:59:52.047Z,1.60
2023-02-27T08:02:19.003Z,2.10
2023-02-27T08:04:45.833Z,1.90
2023-02-27T08:07:12.449Z,1.80
2023-02-27T08:09:39.142Z,1.67
2023-02-27T08:12:05.823Z,1.88
2023-02-27T08:14:32.517Z,1.90
2023-02-27T08:17:02.404Z,1.90
2023-02-27T08:19:29.058Z,1.80
2023-02-27T08:21:55.646Z,1.90
2023-02-27T08:24:22.358Z,1.63
2023-02-27T08:26:49.070Z,1.70
2023-02-27T08:29:17.057Z,1.73
2023-02-27T08:31:43.902Z,1.70
2023-02-27T08:34:11.030Z,1.48
2023-02-27T08:36:38.210Z,1.77
2023-02-27T08:39:06.300Z,2.00
2023-02-27T08:41:33.413Z,1.60
2023-02-27T08:44:00.023Z,2.00
2023-02-27T08:46:26.976Z,1.65
2023-02-27T08:48:54.836Z,2.05
2023-02-27T08:51:21.699Z,1.90
2023-02-27T08:53:48.282Z,1.70
2023-02-27T08:56:14.869Z,1.98
2023-02-27T08:58:41.511Z,1.77
2023-02-27T09:01:08.215Z,1.60
2023-02-27T09:03:34.853Z,1.83
2023-02-27T09:06:01.464Z,2.78
2023-02-27T09:08:28.058Z,1.70
2023-02-27T09:10:58.023Z,1.80
2023-02-27T09:13:24.838Z,1.80
2023-02-27T09:15:51.438Z,1.67
2023-02-27T09:18:18.207Z,2.38
2023-02-27T09:20:45.738Z,1.60
2023-02-27T09:23:12.320Z,1.70
2023-02-27T09:25:39.042Z,1.50
2023-02-27T09:28:05.795Z,1.50
2023-02-27T09:30:33.160Z,1.73
2023-02-27T09:32:59.992Z,1.60
2023-02-27T09:35:26.799Z,1.73
2023-02-27T09:37:53.582Z,1.70
2023-02-27T09:40:26.259Z,1.50
2023-02-27T09:42:58.210Z,1.83
2023-02-27T09:45:30.246Z,1.40
2023-02-27T09:48:15.650Z,1.40
2023-02-27T09:50:49.071Z,2.42
2023-02-27T09:53:31.322Z,1.50
2023-02-27T09:56:16.424Z,1.50
2023-02-27T09:58:45.847Z,1.45
2023-02-27T10:01:23.028Z,1.52
2023-02-27T10:04:31.351Z,1.65
2023-02-27T10:07:13.843Z,1.40
2023-02-27T10:09:50.402Z,1.65
2023-02-27T10:12:35.075Z,1.40
2023-02-27T10:15:16.468Z,1.88
2023-02-27T10:17:48.532Z,1.70
2023-02-27T10:20:27.135Z,2.00
2023-02-27T10:22:57.587Z,1.60
2023-02-27T10:25:31.843Z,1.45
2023-02-27T10:28:11.355Z,1.40
2023-02-27T10:30:38.103Z,1.27
2023-02-27T10:33:13.830Z,1.50
2023-02-27T10:35:43.789Z,1.75
2023-02-27T10:38:17.930Z,1.70
2023-02-27T10:40:46.193Z,1.60
2023-02-27T10:43:16.970Z,1.85
2023-02-27T10:45:44.016Z,1.67
2023-02-27T10:48:11.873Z,1.70
2023-02-27T10:50:42.117Z,1.98
2023-02-27T10:53:23.409Z,1.50
2023-02-27T10:56:08.314Z,1.38
2023-02-27T10:58:36.897Z,1.30
2023-02-27T11:01:08.983Z,1.25
2023-02-27T11:03:43.741Z,0.95
2023-02-27T11:06:22.681Z,1.33
2023-02-27T11:09:10.893Z,1.10
2023-02-27T11:11:38.047Z,1.00
2023-02-27T11:14:27.926Z,1.15
2023-02-27T11:17:00.413Z,1.08
2023-02-27T11:19:34.915Z,1.02
2023-02-27T11:22:05.002Z,1.05
2023-02-27T11:24:31.923Z,0.93
2023-02-27T11:27:05.171Z,0.70
2023-02-27T11:29:34.187Z,1.10
2023-02-27T11:32:11.240Z,0.85
2023-02-27T11:34:49.887Z,0.98
2023-02-27T11:37:28.362Z,1.30
2023-02-27T11:40:12.661Z,1.20
2023-02-27T11:42:50.167Z,1.40
2023-02-27T11:46:13.632Z,1.08
2023-02-27T11:48:50.349Z,1.00
2023-02-27T11:51:16.928Z,1.23
2023-02-27T11:54:06.439Z,1.15
2023-02-27T11:56:58.133Z,1.05
2023-02-27T11:59:58.272Z,2.03
2023-02-27T12:02:47.176Z,1.23
2023-02-27T12:05:48.067Z,0.90
2023-02-27T12:08:18.581Z,1.00
2023-02-27T12:10:45.529Z,0.70
2023-02-27T12:13:22.664Z,1.02
2023-02-27T12:16:21.417Z,0.80
2023-02-27T12:18:57.643Z,0.82
2023-02-27T12:21:48.486Z,0.60
2023-02-27T12:24:41.057Z,0.60
2023-02-27T12:27:21.609Z,0.80
2023-02-27T12:29:55.989Z,4.50
2023-02-27T12:32:24.860Z,0.95
2023-02-27T12:35:13.354Z,0.57
2023-02-27T12:37:40.087Z,0.70
2023-02-27T12:40:09.117Z,0.73
2023-02-27T12:42:36.236Z,0.50
2023-02-27T12:45:10.658Z,1.05
2023-02-27T12:48:15.287Z,0.52
2023-02-27T12:51:08.619Z,0.70
2023-02-27T12:53:44.500Z,0.52
2023-02-27T12:56:17.091Z,0.63
2023-02-27T12:59:09.829Z,1.27
2023-02-27T13:01:48.445Z,0.70
2023-02-27T13:04:24.282Z,0.60
2023-02-27T13:07:04.525Z,0.57
2023-02-27T13:09:39.604Z,0.73
2023-02-27T13:12:15.251Z,0.70
2023-02-27T13:14:56.227Z,0.63
2023-02-27T13:17:22.784Z,0.60
2023-02-27T13:19:59.923Z,0.70
2023-02-27T13:22:56.192Z,1.58
2023-02-27T13:25:24.423Z,0.50
2023-02-27T13:28:00.346Z,0.60
2023-02-27T13:30:37.939Z,1.25
2023-02-27T13:33:30.483Z,0.57
2023-02-27T13:36:03.630Z,0.90
2023-02-27T13:38:44.662Z,0.60
2023-02-27T13:41:23.234Z,0.90
2023-02-27T13:43:53.258Z,0.55
2023-02-27T13:46:28.298Z,0.60
2023-02-27T13:49:05.013Z,0.60
2023-02-27T13:51:46.759Z,0.75
2023-02-27T13:54:13.332Z,0.68
2023-02-27T13:56:55.198Z,1.02
2023-02-27T13:59:33.569Z,0.80
2023-02-27T14:02:01.988Z,0.73
2023-02-27T14:04:53.857Z,0.60
2023-02-27T14:07:25.068Z,0.60
2023-02-27T14:10:00.190Z,0.93
2023-02-27T14:12:44.451Z,0.70
2023-02-27T14:15:17.743Z,1.50
2023-02-27T14:17:46.431Z,1.60
2023-02-27T14:20:27.326Z,0.80
2023-02-27T14:23:15.686Z,0.85
2023-02-27T14:26:12.279Z,0.63
2023-02-27T14:28:52.843Z,0.77
2023-02-27T14:31:32.702Z,0.70
2023-02-27T14:34:09.214Z,0.70
2023-02-27T14:36:57.114Z,0.70
2023-02-27T14:39:30.780Z,0.77
2023-02-27T14:42:30.611Z,0.40
2023-02-27T14:44:57.723Z,0.63
2023-02-27T14:47:29.943Z,0.75
2023-02-27T14:49:57.161Z,0.70
2023-02-27T14:52:29.829Z,0.68
2023-02-27T14:55:15.698Z,0.85
2023-02-27T14:57:54.490Z,0.60
2023-02-27T15:00:42.735Z,0.60
2023-02-27T15:03:20.334Z,0.73
2023-02-27T15:05:49.342Z,0.82
2023-02-27T15:08:26.318Z,0.68
2023-02-27T15:10:55.598Z,0.60
2023-02-27T15:13:32.473Z,0.93
2023-02-27T15:16:24.302Z,0.73
2023-02-27T15:18:53.409Z,0.70
2023-02-27T15:21:25.060Z,0.88
2023-02-27T15:23:59.881Z,0.82
2023-02-27T15:26:30.228Z,1.20
2023-02-27T15:28:59.658Z,0.70
2023-02-27T15:31:31.042Z,0.65
2023-02-27T15:34:00.225Z,0.70
2023-02-27T15:36:34.785Z,0.88
2023-02-27T15:39:16.935Z,0.80
2023-02-27T15:41:50.190Z,0.75
2023-02-27T15:44:20.643Z,0.88
2023-02-27T15:46:47.738Z,0.70
2023-02-27T15:49:17.222Z,0.80
2023-02-27T15:51:46.581Z,0.75
2023-02-27T15:54:13.954Z,0.70
2023-02-27T15:56:41.489Z,0.80
2023-02-27T15:59:10.480Z,0.82
2023-02-27T16:01:38.292Z,1.17
2023-02-27T16:04:13.708Z,1.10
2023-02-27T16:06:41.443Z,0.90
2023-02-27T16:09:19.814Z,0.82
2023-02-27T16:11:46.617Z,1.42
2023-02-27T16:14:39.591Z,0.80
2023-02-27T16:17:29.271Z,0.90
2023-02-27T16:22:23.509Z,0.80
2023-02-27T16:24:51.411Z,0.93
2023-02-27T16:27:26.575Z,1.63
2023-02-27T16:29:55.822Z,0.80
2023-02-27T16:32:28.282Z,0.93
2023-02-27T16:35:16.596Z,1.08
2023-02-27T16:37:45.172Z,1.17
2023-02-27T16:40:24.012Z,0.80
2023-02-27T16:42:51.860Z,1.05
2023-02-27T16:45:24.389Z,1.20
2023-02-27T16:47:54.041Z,1.33
2023-02-27T16:50:38.651Z,1.00
2023-02-27T16:53:05.347Z,0.90
2023-02-27T16:55:33.733Z,1.00
2023-02-27T16:58:00.658Z,1.02
2023-02-27T17:00:27.411Z,0.93
2023-02-27T17:02:54.133Z,0.65
2023-02-27T17:05:20.889Z,1.67
2023-02-27T17:07:48.759Z,1.25
2023-02-27T17:10:21.956Z,1.10
2023-02-27T17:12:48.587Z,1.13
2023-02-27T17:15:16.089Z,1.00
2023-02-27T17:17:43.198Z,1.15
2023-02-27T17:20:11.270Z,1.02
2023-02-27T17:22:43.129Z,0.90
2023-02-27T17:25:10.801Z,1.17
2023-02-27T17:27:37.744Z,1.17
2023-02-27T17:30:06.141Z,1.17
2023-02-27T17:32:34.484Z,0.88
2023-02-27T17:35:01.653Z,1.10
2023-02-27T17:37:28.379Z,1.40
2023-02-27T17:39:55.434Z,1.42
2023-02-27T17:42:25.551Z,1.25
2023-02-27T17:44:52.212Z,1.10
2023-02-27T17:47:19.024Z,1.35
2023-02-27T17:49:45.632Z,1.38
2023-02-27T17:52:12.548Z,1.15
2023-02-27T17:54:39.213Z,1.23
2023-02-27T17:57:06.900Z,1.30
2023-02-27T17:59:33.841Z,1.42
2023-02-27T18:02:00.484Z,1.45
2023-02-27T18:04:27.350Z,1.40
2023-02-27T18:06:54.042Z,1.38
2023-02-27T18:09:20.807Z,1.30
2023-02-27T18:11:47.507Z,1.33
2023-02-27T18:14:14.151Z,1.60
2023-02-27T18:16:41.376Z,1.25
2023-02-27T18:19:08.552Z,1.33
2023-02-27T18:21:35.609Z,1.90
2023-02-27T18:24:02.582Z,1.38
2023-02-27T18:26:31.397Z,1.42
2023-02-27T18:29:04.083Z,1.83
2023-02-27T18:31:34.817Z,1.65
2023-02-27T18:34:02.061Z,1.67
2023-02-27T18:36:29.936Z,1.55
2023-02-27T18:38:57.658Z,1.65
2023-02-27T18:41:24.333Z,1.70
2023-02-27T18:43:51.528Z,1.30
2023-02-27T18:46:18.823Z,1.35
2023-02-27T18:48:46.584Z,1.40
2023-02-27T18:51:15.888Z,1.98
2023-02-27T18:53:45.918Z,1.50
2023-02-27T18:56:13.980Z,1.35
2023-02-27T18:58:40.928Z,1.23
2023-02-27T19:01:08.400Z,1.55
2023-02-27T19:03:35.784Z,1.27
2023-02-27T19:06:02.725Z,1.48
2023-02-27T19:08:29.519Z,1.63
2023-02-27T19:10:57.349Z,2.08
2023-02-27T19:13:25.148Z,1.17
2023-02-27T19:15:52.773Z,1.42
2023-02-27T19:18:19.619Z,2.35
2023-02-27T19:20:46.450Z,1.75
2023-02-27T19:23:13.133Z,1.77
2023-02-27T19:25:41.872Z,1.75
2023-02-27T19:28:10.844Z,1.50
2023-02-27T19:30:39.037Z,1.70
2023-02-27T19:33:05.837Z,1.98
2023-02-27T19:35:32.618Z,1.65
2023-02-27T19:37:59.299Z,1.55
2023-02-27T19:40:26.506Z,1.88
2023-02-27T19:42:53.168Z,1.52
2023-02-27T19:45:19.956Z,2.00
2023-02-27T19:47:46.830Z,1.70
2023-02-27T19:50:13.776Z,2.00
2023-02-27T19:52:40.477Z,1.83
2023-02-27T19:55:07.543Z,2.28
2023-02-27T19:57:36.900Z,2.20
2023-02-27T20:00:08.297Z,1.92
2023-02-27T20:02:34.964Z,2.40
2023-02-27T20:05:03.132Z,2.20
2023-02-27T20:07:30.344Z,2.10
2023-02-27T20:09:57.309Z,2.40
2023-02-27T20:12:24.291Z,2.33
2023-02-27T20:14:51.076Z,2.20
2023-02-27T20:17:17.886Z,2.33
2023-02-27T20:19:44.557Z,2.40
2023-02-27T20:22:13.482Z,2.55
2023-02-27T20:24:40.203Z,2.35
2023-02-27T20:27:07.186Z,2.42
2023-02-27T20:29:33.982Z,2.40
2023-02-27T20:32:00.969Z,2.33
2023-02-27T20:34:28.461Z,2.72
2023-02-27T20:36:55.811Z,3.10
2023-02-27T20:39:23.249Z,2.15
2023-02-27T20:41:50.023Z,2.25
2023-02-27T20:44:16.818Z,2.78
2023-02-27T20:46:44.173Z,2.55
2023-02-27T20:49:15.577Z,2.75
2023-02-27T20:51:42.994Z,2.80
2023-02-27T20:54:14.200Z,2.40
2023-02-27T20:56:41.872Z,2.83
2023-02-27T20:59:13.041Z,2.70
2023-02-27T21:01:41.676Z,2.67
2023-02-27T21:04:08.810Z,3.25
2023-02-27T21:06:35.570Z,2.47
2023-02-27T21:09:05.391Z,2.30
2023-02-27T21:11:33.288Z,2.50
2023-02-27T21:14:04.657Z,2.70
2023-02-27T21:16:31.998Z,2.80
2023-02-27T21:18:58.668Z,2.80
2023-02-27T21:21:29.432Z,2.72
2023-02-27T21:23:56.910Z,2.70
2023-02-27T21:26:28.912Z,2.33
2023-02-27T21:29:01.418Z,2.70
2023-02-27T21:31:31.303Z,2.55
2023-02-27T21:33:59.759Z,3.05
2023-02-27T21:36:28.526Z,2.55
2023-02-27T21:39:00.265Z,2.50
2023-02-27T21:41:28.293Z,3.10
2023-02-27T21:44:03.418Z,3.05
2023-02-27T21:46:30.511Z,3.05
2023-02-27T21:48:57.838Z,2.83
2023-02-27T21:51:38.640Z,3.40
2023-02-27T21:54:06.670Z,3.17
2023-02-27T21:56:33.757Z,3.55
2023-02-27T21:59:01.749Z,3.92
2023-02-27T22:01:29.935Z,3.50
2023-02-27T22:03:57.494Z,3.40
2023-02-27T22:06:26.796Z,3.17
2023-02-27T22:08:56.875Z,3.85
2023-02-27T22:11:25.064Z,2.70
2023-02-27T22:13:51.831Z,3.30
2023-02-27T22:16:19.274Z,3.25
2023-02-27T22:18:45.991Z,3.70
2023-02-27T22:21:18.229Z,3.28
2023-02-27T22:23:45.929Z,3.40
2023-02-27T22:26:15.546Z,3.15
2023-02-27T22:31:15.593Z,3.42
2023-02-27T22:33:43.860Z,3.92
2023-02-27T22:36:24.635Z,3.70
2023-02-27T22:38:52.006Z,3.80
2023-02-27T22:41:22.248Z,3.63
2023-02-27T22:43:49.060Z,3.72
2023-02-27T22:46:22.839Z,2.95
2023-02-27T22:48:52.998Z,3.75
2023-02-27T22:51:19.716Z,3.13
2023-02-27T22:53:46.668Z,3.50
2023-02-27T22:56:15.829Z,3.53
2023-02-27T22:58:43.942Z,4.22
2023-02-27T23:01:18.182Z,4.15
2023-02-27T23:03:47.321Z,3.13
2023-02-27T23:06:17.270Z,3.67
2023-02-27T23:08:44.674Z,3.75
2023-02-27T23:11:12.908Z,3.60
2023-02-27T23:13:39.758Z,3.60
2023-02-27T23:16:11.481Z,4.45
2023-02-27T23:18:45.418Z,4.53
2023-02-27T23:21:13.788Z,3.90
2023-02-27T23:23:40.455Z,4.45
2023-02-27T23:26:07.356Z,4.10
2023-02-27T23:28:35.772Z,3.92
2023-02-27T23:31:03.325Z,3.85
2023-02-27T23:33:30.642Z,3.80
2023-02-27T23:35:57.743Z,3.80
2023-02-27T23:38:25.492Z,3.40
2023-02-27T23:40:52.632Z,3.97
2023-02-27T23:43:37.967Z,3.45
2023-02-27T23:46:09.237Z,4.38
2023-02-27T23:48:36.422Z,4.43
2023-02-27T23:51:04.672Z,3.92
2023-02-27T23:53:32.048Z,4.82
2023-02-27T23:55:58.878Z,4.38
2023-02-27T23:58:25.802Z,4.15
